createdAt,value
2023-04-06T00:02:59.768Z,-4.91
2023-04-06T00:08:01.700Z,-4.76
2023-04-06T00:13:03.488Z,-4.68
2023-04-06T00:18:05.382Z,-4.69
2023-04-06T00:23:07.243Z,-4.76
2023-04-06T00:28:08.932Z,-4.82
2023-04-06T00:33:10.732Z,-4.86
2023-04-06T00:38:13.153Z,-4.84
2023-04-06T00:43:15.296Z,-4.72
2023-04-06T00:48:17.560Z,-4.65
2023-04-06T00:53:19.467Z,-4.69
2023-04-06T00:58:21.282Z,-4.56
2023-04-06T01:03:27.210Z,-4.38
2023-04-06T01:08:29.371Z,-4.22
2023-04-06T01:13:42.163Z,-4.10
2023-04-06T01:18:51.691Z,-4.01
2023-04-06T01:23:56.981Z,-4.31
2023-04-06T01:29:04.129Z,-4.04
2023-04-06T01:34:06.368Z,-4.11
2023-04-06T01:39:08.456Z,-4.20
2023-04-06T01:44:12.192Z,-4.25
2023-04-06T01:49:15.983Z,-4.26
2023-04-06T01:54:20.237Z,-4.25
2023-04-06T01:59:41.868Z,-4.31
2023-04-06T02:04:49.927Z,-4.36
2023-04-06T02:09:56.373Z,-4.39
2023-04-06T02:15:01.801Z,-4.38
2023-04-06T02:20:03.650Z,-4.35
2023-04-06T02:25:05.749Z,-4.25
2023-04-06T02:30:09.114Z,-4.17
2023-04-06T02:35:11.340Z,-4.17
2023-04-06T02:40:15.094Z,-4.22
2023-04-06T02:45:17.251Z,-4.32
2023-04-06T02:50:21.775Z,-4.42
2023-04-06T02:55:29.303Z,-4.50
2023-04-06T03:00:31.569Z,-4.61
2023-04-06T03:05:33.311Z,-4.70
2023-04-06T03:10:35.913Z,-4.75
2023-04-06T03:15:37.747Z,-4.67
2023-04-06T03:20:48.191Z,-4.56
2023-04-06T03:25:50.965Z,-4.47
2023-04-06T03:30:54.655Z,-4.38
2023-04-06T03:36:11.477Z,-4.34
2023-04-06T03:41:16.115Z,-4.36
2023-04-06T03:46:22.412Z,-4.44
2023-04-06T03:51:27.919Z,-4.57
2023-04-06T03:56:29.629Z,-4.71
2023-04-06T04:01:31.397Z,-4.85
2023-04-06T04:06:33.280Z,-4.86
2023-04-06T04:11:35.087Z,-4.77
2023-04-06T04:16:36.855Z,-4.60
2023-04-06T04:21:46.531Z,-4.46
2023-04-06T04:26:50.850Z,-4.44
2023-04-06T04:31:53.335Z,-4.49
2023-04-06T04:36:55.382Z,-4.54
2023-04-06T04:42:04.048Z,-4.57
2023-04-06T04:47:06.641Z,-4.56
2023-04-06T04:52:15.928Z,-4.50
2023-04-06T04:57:28.369Z,-4.45
2023-04-06T05:02:30.671Z,-4.41
2023-04-06T05:07:45.471Z,-4.30
2023-04-06T05:12:53.485Z,-4.16
2023-04-06T05:17:55.473Z,-3.92
2023-04-06T05:23:00.424Z,-3.60
2023-04-06T05:28:02.489Z,-3.39
2023-04-06T05:33:07.154Z,-2.91
2023-04-06T05:38:19.839Z,-2.55
2023-04-06T05:43:23.288Z,-2.23
2023-04-06T05:48:29.010Z,-1.90
2023-04-06T05:53:31.092Z,-1.64
2023-04-06T05:58:34.850Z,-1.42
2023-04-06T06:03:37.280Z,-1.24
2023-04-06T06:08:39.097Z,-1.07
2023-04-06T06:13:46.116Z,-0.92
2023-04-06T06:18:48.963Z,-0.81
2023-04-06T06:23:51.995Z,-0.66
2023-04-06T06:28:56.157Z,-0.42
2023-04-06T06:33:58.671Z,-0.16
2023-04-06T06:39:01.650Z,0.14
2023-04-06T06:44:13.784Z,0.44
2023-04-06T06:49:15.626Z,0.61
2023-04-06T06:54:17.314Z,0.73
2023-04-06T06:59:19.230Z,0.72
2023-04-06T07:04:21.561Z,1.03
2023-04-06T07:09:28.811Z,1.16
2023-04-06T07:14:31.234Z,1.29
2023-04-06T07:19:32.999Z,1.45
2023-04-06T07:24:34.786Z,1.64
2023-04-06T07:29:36.584Z,1.83
2023-04-06T07:34:38.522Z,1.94
2023-04-06T07:39:41.280Z,2.09
2023-04-06T07:44:43.300Z,2.30
2023-04-06T07:49:46.321Z,2.43
2023-04-06T07:54:50.393Z,2.49
2023-04-06T07:59:52.451Z,2.64
2023-04-06T08:04:54.585Z,2.85
2023-04-06T08:09:56.273Z,3.00
2023-04-06T08:14:58.121Z,3.22
2023-04-06T08:20:00.493Z,3.31
2023-04-06T08:25:02.186Z,3.33
2023-04-06T08:30:04.202Z,3.39
2023-04-06T08:35:09.010Z,3.63
2023-04-06T08:40:14.029Z,3.70
2023-04-06T08:45:17.659Z,3.71
2023-04-06T08:50:20.192Z,3.59
2023-04-06T08:55:23.468Z,3.50
2023-04-06T09:00:26.601Z,3.41
2023-04-06T09:05:28.437Z,3.35
2023-04-06T09:10:30.632Z,3.52
2023-04-06T09:15:32.387Z,3.90
2023-04-06T09:20:34.228Z,4.25
2023-04-06T09:25:35.908Z,4.42
2023-04-06T09:30:37.614Z,4.53
2023-04-06T09:35:39.353Z,4.70
2023-04-06T09:41:00.886Z,4.71
2023-04-06T09:46:05.240Z,4.82
2023-04-06T09:51:07.898Z,5.03
2023-04-06T09:56:14.020Z,5.19
2023-04-06T10:01:18.503Z,5.29
2023-04-06T10:06:23.765Z,5.37
2023-04-06T10:11:25.767Z,5.45
2023-04-06T10:16:29.031Z,5.37
2023-04-06T10:21:33.536Z,5.51
2023-04-06T10:26:35.395Z,5.65
2023-04-06T10:31:43.272Z,5.77
2023-04-06T10:36:45.198Z,5.79
2023-04-06T10:41:49.104Z,5.78
2023-04-06T10:46:57.459Z,5.96
2023-04-06T10:51:59.536Z,6.07
2023-04-06T10:57:01.913Z,6.03
2023-04-06T11:02:22.158Z,5.84
2023-04-06T11:07:27.919Z,5.96
2023-04-06T11:12:31.264Z,6.07
2023-04-06T11:17:37.881Z,6.07
2023-04-06T11:22:49.716Z,6.15
2023-04-06T11:27:52.990Z,6.09
2023-04-06T11:33:01.604Z,6.00
2023-04-06T11:38:05.187Z,6.02
2023-04-06T11:43:07.991Z,6.08
2023-04-06T11:48:20.363Z,6.16
2023-04-06T11:53:22.831Z,6.26
2023-04-06T11:58:25.464Z,6.23
2023-04-06T12:03:27.494Z,6.04
2023-04-06T12:08:29.396Z,6.05
2023-04-06T12:13:31.102Z,5.99
2023-04-06T12:18:32.801Z,5.92
2023-04-06T12:23:34.487Z,5.90
2023-04-06T12:28:36.602Z,5.88
2023-04-06T12:33:38.266Z,5.91
2023-04-06T12:38:42.261Z,5.71
2023-04-06T12:43:45.324Z,5.55
2023-04-06T12:48:47.288Z,5.36
2023-04-06T12:53:49.305Z,5.35
2023-04-06T12:58:54.889Z,5.34
2023-04-06T13:03:58.914Z,5.34
2023-04-06T13:09:01.106Z,5.16
2023-04-06T13:14:03.056Z,4.99
2023-04-06T13:19:05.002Z,5.07
2023-04-06T13:24:06.943Z,5.24
2023-04-06T13:29:08.654Z,5.20
2023-04-06T13:34:11.079Z,5.21
2023-04-06T13:39:12.878Z,5.10
2023-04-06T13:44:14.734Z,5.10
2023-04-06T13:49:17.133Z,4.85
2023-04-06T13:54:19.143Z,4.94
2023-04-06T13:59:21.243Z,4.86
2023-04-06T14:04:23.535Z,4.62
2023-04-06T14:09:25.579Z,4.37
2023-04-06T14:14:27.588Z,4.26
2023-04-06T14:19:29.349Z,4.14
2023-04-06T14:24:31.830Z,4.03
2023-04-06T14:29:37.249Z,3.96
2023-04-06T14:34:41.198Z,3.77
2023-04-06T14:39:42.946Z,3.55
2023-04-06T14:44:46.261Z,3.35
2023-04-06T14:49:51.326Z,3.31
2023-04-06T14:54:53.109Z,3.19
2023-04-06T14:59:55.340Z,3.42
2023-04-06T15:04:57.762Z,3.37
2023-04-06T15:09:59.452Z,3.34
2023-04-06T15:15:02.020Z,3.29
2023-04-06T15:20:04.503Z,3.28
2023-04-06T15:25:06.716Z,3.32
2023-04-06T15:30:08.708Z,3.30
2023-04-06T15:35:11.851Z,3.22
2023-04-06T15:40:14.541Z,3.13
2023-04-06T15:45:16.462Z,3.01
2023-04-06T15:50:19.662Z,2.93
2023-04-06T15:55:21.365Z,2.87
2023-04-06T16:00:23.367Z,2.81
2023-04-06T16:05:27.134Z,2.71
2023-04-06T16:10:30.198Z,2.66
2023-04-06T16:15:31.928Z,2.67
2023-04-06T16:20:35.939Z,2.65
2023-04-06T16:25:37.694Z,2.61
2023-04-06T16:30:40.914Z,2.58
2023-04-06T16:35:45.424Z,2.44
2023-04-06T16:40:47.120Z,2.57
2023-04-06T16:45:52.274Z,2.53
2023-04-06T16:50:55.176Z,2.51
2023-04-06T16:55:57.191Z,2.38
2023-04-06T17:01:01.729Z,2.55
2023-04-06T17:06:03.526Z,2.57
2023-04-06T17:11:05.221Z,2.45
2023-04-06T17:16:08.281Z,2.25
2023-04-06T17:21:14.594Z,2.11
2023-04-06T17:26:17.139Z,2.00
2023-04-06T17:31:18.960Z,1.93
2023-04-06T17:36:22.011Z,1.85
2023-04-06T17:41:24.132Z,1.74
2023-04-06T17:46:27.194Z,1.67
2023-04-06T17:51:28.903Z,1.59
2023-04-06T17:56:31.046Z,1.57
2023-04-06T18:01:32.927Z,1.51
2023-04-06T18:06:36.941Z,1.46
2023-04-06T18:11:38.764Z,1.44
2023-04-06T18:16:41.074Z,1.43
2023-04-06T18:21:42.856Z,1.41
2023-04-06T18:26:44.498Z,1.31
2023-04-06T18:31:51.533Z,1.24
2023-04-06T18:36:53.325Z,1.09
2023-04-06T18:41:55.790Z,1.19
2023-04-06T18:46:58.389Z,1.16
2023-04-06T18:52:01.620Z,1.21
2023-04-06T18:57:04.250Z,1.25
2023-04-06T19:02:14.801Z,1.21
2023-04-06T19:07:16.794Z,1.16
2023-04-06T19:12:18.507Z,1.19
2023-04-06T19:17:21.107Z,1.21
2023-04-06T19:22:23.626Z,1.23
2023-04-06T19:27:33.833Z,1.22
2023-04-06T19:32:37.526Z,1.19
2023-04-06T19:37:39.562Z,1.17
2023-04-06T19:42:41.220Z,1.19
2023-04-06T19:47:43.257Z,1.19
2023-04-06T19:52:44.932Z,1.14
2023-04-06T19:57:46.738Z,1.04
2023-04-06T20:02:48.622Z,1.07
2023-04-06T20:07:50.628Z,1.11
2023-04-06T20:12:52.550Z,1.02
2023-04-06T20:17:54.262Z,0.97
2023-04-06T20:22:56.168Z,1.04
2023-04-06T20:27:58.112Z,1.13
2023-04-06T20:32:59.910Z,1.14
2023-04-06T20:38:02.182Z,1.06
2023-04-06T20:43:05.590Z,1.01
2023-04-06T20:48:07.436Z,1.03
2023-04-06T20:53:09.272Z,1.09
2023-04-06T20:58:11.092Z,1.17
2023-04-06T21:03:12.913Z,1.15
2023-04-06T21:08:14.763Z,1.10
2023-04-06T21:13:21.194Z,1.08
2023-04-06T21:18:23.650Z,1.09
2023-04-06T21:23:27.313Z,1.12
2023-04-06T21:28:29.181Z,1.05
2023-04-06T21:33:31.038Z,0.97
2023-04-06T21:38:32.962Z,0.93
2023-04-06T21:43:35.974Z,0.92
2023-04-06T21:48:58.070Z,0.89
2023-04-06T21:54:01.995Z,0.89
2023-04-06T21:59:03.734Z,0.87
2023-04-06T22:04:05.516Z,0.86
2023-04-06T22:09:07.372Z,0.86
2023-04-06T22:14:09.064Z,0.83
2023-04-06T22:19:11.123Z,0.83
2023-04-06T22:24:13.212Z,0.86
2023-04-06T22:29:15.027Z,0.82
2023-04-06T22:34:16.985Z,0.80
2023-04-06T22:39:19.145Z,0.77
2023-04-06T22:44:20.914Z,0.74
2023-04-06T22:49:22.737Z,0.73
2023-04-06T22:54:24.516Z,0.72
2023-04-06T22:59:26.338Z,0.76
2023-04-06T23:04:28.200Z,0.86
2023-04-06T23:09:31.103Z,0.90
2023-04-06T23:14:39.719Z,0.88
2023-04-06T23:19:41.628Z,0.84
2023-04-06T23:24:43.313Z,0.84
2023-04-06T23:29:45.017Z,0.87
2023-04-06T23:34:46.721Z,0.82
2023-04-06T23:39:48.486Z,0.81
2023-04-06T23:44:50.663Z,0.83
2023-04-06T23:49:58.491Z,0.84
2023-04-06T23:55:01.298Z,0.87
